sensor_id;sensor_type;location;lat;lon;timestamp;P1;durP1;ratioP1;P2;durP2;ratioP2
48859;SDS011;34679;51.436;-2.518;2023-07-16T00:01:27;17.60;;;3.53;;
48859;SDS011;34679;51.436;-2.518;2023-07-16T00:03:52;23.85;;;4.85;;
48859;SDS011;34679;51.436;-2.518;2023-07-16T00:06:18;17.42;;;3.55;;
48859;SDS011;34679;51.436;-2.518;2023-07-16T00:08:43;25.10;;;4.20;;
48859;SDS011;34679;51.436;-2.518;2023-07-16T00:11:09;25.98;;;4.55;;
48859;SDS011;34679;51.436;-2.518;2023-07-16T00:13:35;21.40;;;3.58;;
48859;SDS011;34679;51.436;-2.518;2023-07-16T00:16:01;18.20;;;4.15;;
48859;SDS011;34679;51.436;-2.518;2023-07-16T00:18:26;22.13;;;4.68;;
48859;SDS011;34679;51.436;-2.518;2023-07-16T00:20:52;18.75;;;3.90;;
48859;SDS011;34679;51.436;-2.518;2023-07-16T00:23:18;29.77;;;7.00;;
48859;SDS011;34679;51.436;-2.518;2023-07-16T00:25:43;31.85;;;5.25;;
48859;SDS011;34679;51.436;-2.518;2023-07-16T00:28:09;28.05;;;5.82;;
48859;SDS011;34679;51.436;-2.518;2023-07-16T00:30:36;18.77;;;4.28;;
48859;SDS011;34679;51.436;-2.518;2023-07-16T00:33:02;23.50;;;5.25;;
48859;SDS011;34679;51.436;-2.518;2023-07-16T00:35:28;31.88;;;6.03;;
48859;SDS011;34679;51.436;-2.518;2023-07-16T00:37:54;23.80;;;4.70;;
48859;SDS011;34679;51.436;-2.518;2023-07-16T00:40:19;22.52;;;5.53;;
48859;SDS011;34679;51.436;-2.518;2023-07-16T00:42:45;21.90;;;4.85;;
48859;SDS011;34679;51.436;-2.518;2023-07-16T00:45:11;22.77;;;4.55;;
48859;SDS011;34679;51.436;-2.518;2023-07-16T00:47:41;22.80;;;4.60;;
48859;SDS011;34679;51.436;-2.518;2023-07-16T00:50:10;28.27;;;5.43;;
48859;SDS011;34679;51.436;-2.518;2023-07-16T00:52:37;36.97;;;4.90;;
48859;SDS011;34679;51.436;-2.518;2023-07-16T00:55:03;24.38;;;4.53;;
48859;SDS011;34679;51.436;-2.518;2023-07-16T00:57:29;24.58;;;5.05;;
48859;SDS011;34679;51.436;-2.518;2023-07-16T00:59:56;35.20;;;5.28;;
48859;SDS011;34679;51.436;-2.518;2023-07-16T01:02:21;26.65;;;6.22;;
48859;SDS011;34679;51.436;-2.518;2023-07-16T01:04:47;26.50;;;4.72;;
48859;SDS011;34679;51.436;-2.518;2023-07-16T01:07:13;28.30;;;5.07;;
48859;SDS011;34679;51.436;-2.518;2023-07-16T01:09:44;35.30;;;5.63;;
48859;SDS011;34679;51.436;-2.518;2023-07-16T01:12:10;48.45;;;7.38;;
48859;SDS011;34679;51.436;-2.518;2023-07-16T01:14:38;22.50;;;4.78;;
48859;SDS011;34679;51.436;-2.518;2023-07-16T01:17:05;29.83;;;6.00;;
48859;SDS011;34679;51.436;-2.518;2023-07-16T01:19:32;28.08;;;5.25;;
48859;SDS011;34679;51.436;-2.518;2023-07-16T01:28:39;27.88;;;4.30;;
48859;SDS011;34679;51.436;-2.518;2023-07-16T01:30:50;30.48;;;4.43;;
48859;SDS011;34679;51.436;-2.518;2023-07-16T01:33:17;33.03;;;4.75;;
48859;SDS011;34679;51.436;-2.518;2023-07-16T01:35:44;31.10;;;6.13;;
48859;SDS011;34679;51.436;-2.518;2023-07-16T01:38:11;31.60;;;6.28;;
48859;SDS011;34679;51.436;-2.518;2023-07-16T01:40:37;31.23;;;5.25;;
48859;SDS011;34679;51.436;-2.518;2023-07-16T01:43:02;32.40;;;5.18;;
48859;SDS011;34679;51.436;-2.518;2023-07-16T01:45:28;34.17;;;5.18;;
48859;SDS011;34679;51.436;-2.518;2023-07-16T01:48:05;26.55;;;5.50;;
48859;SDS011;34679;51.436;-2.518;2023-07-16T01:50:52;22.08;;;4.30;;
48859;SDS011;34679;51.436;-2.518;2023-07-16T01:53:18;33.65;;;4.43;;
48859;SDS011;34679;51.436;-2.518;2023-07-16T01:55:44;27.65;;;4.78;;
48859;SDS011;34679;51.436;-2.518;2023-07-16T01:58:09;22.10;;;4.05;;
48859;SDS011;34679;51.436;-2.518;2023-07-16T02:00:36;28.00;;;4.47;;
48859;SDS011;34679;51.436;-2.518;2023-07-16T02:03:01;20.45;;;3.42;;
48859;SDS011;34679;51.436;-2.518;2023-07-16T02:05:27;31.33;;;5.95;;
48859;SDS011;34679;51.436;-2.518;2023-07-16T02:07:53;37.08;;;5.10;;
48859;SDS011;34679;51.436;-2.518;2023-07-16T02:10:19;26.10;;;5.05;;
48859;SDS011;34679;51.436;-2.518;2023-07-16T02:12:45;23.02;;;4.55;;
48859;SDS011;34679;51.436;-2.518;2023-07-16T02:15:11;26.75;;;4.80;;
48859;SDS011;34679;51.436;-2.518;2023-07-16T02:17:37;25.95;;;5.35;;
48859;SDS011;34679;51.436;-2.518;2023-07-16T02:20:03;22.67;;;4.03;;
48859;SDS011;34679;51.436;-2.518;2023-07-16T02:22:30;24.60;;;4.47;;
48859;SDS011;34679;51.436;-2.518;2023-07-16T02:24:56;30.20;;;4.55;;
48859;SDS011;34679;51.436;-2.518;2023-07-16T02:27:22;19.60;;;4.13;;
48859;SDS011;34679;51.436;-2.518;2023-07-16T02:29:47;19.08;;;3.50;;
48859;SDS011;34679;51.436;-2.518;2023-07-16T02:32:13;33.33;;;4.30;;
48859;SDS011;34679;51.436;-2.518;2023-07-16T02:34:39;29.00;;;5.32;;
48859;SDS011;34679;51.436;-2.518;2023-07-16T02:37:05;34.22;;;5.30;;
48859;SDS011;34679;51.436;-2.518;2023-07-16T02:39:31;26.98;;;3.55;;
48859;SDS011;34679;51.436;-2.518;2023-07-16T02:41:57;22.65;;;3.75;;
48859;SDS011;34679;51.436;-2.518;2023-07-16T02:44:23;25.70;;;3.75;;
48859;SDS011;34679;51.436;-2.518;2023-07-16T02:46:48;32.40;;;5.10;;
48859;SDS011;34679;51.436;-2.518;2023-07-16T02:49:14;30.25;;;4.25;;
48859;SDS011;34679;51.436;-2.518;2023-07-16T02:51:40;22.90;;;3.58;;
48859;SDS011;34679;51.436;-2.518;2023-07-16T02:54:05;20.55;;;4.72;;
48859;SDS011;34679;51.436;-2.518;2023-07-16T02:56:31;24.25;;;3.47;;
48859;SDS011;34679;51.436;-2.518;2023-07-16T02:58:57;26.05;;;3.63;;
48859;SDS011;34679;51.436;-2.518;2023-07-16T03:01:23;27.95;;;4.78;;
48859;SDS011;34679;51.436;-2.518;2023-07-16T03:03:49;22.30;;;3.78;;
48859;SDS011;34679;51.436;-2.518;2023-07-16T03:06:14;34.58;;;5.43;;
48859;SDS011;34679;51.436;-2.518;2023-07-16T03:08:40;23.60;;;3.53;;
48859;SDS011;34679;51.436;-2.518;2023-07-16T03:11:06;22.55;;;3.38;;
48859;SDS011;34679;51.436;-2.518;2023-07-16T03:13:32;22.15;;;3.40;;
48859;SDS011;34679;51.436;-2.518;2023-07-16T03:15:57;28.10;;;5.25;;
48859;SDS011;34679;51.436;-2.518;2023-07-16T03:18:27;20.15;;;5.32;;
48859;SDS011;34679;51.436;-2.518;2023-07-16T03:20:53;30.20;;;4.47;;
48859;SDS011;34679;51.436;-2.518;2023-07-16T03:23:19;22.77;;;3.70;;
48859;SDS011;34679;51.436;-2.518;2023-07-16T03:25:44;34.28;;;6.05;;
48859;SDS011;34679;51.436;-2.518;2023-07-16T03:28:10;26.70;;;3.40;;
48859;SDS011;34679;51.436;-2.518;2023-07-16T03:30:36;19.45;;;2.85;;
48859;SDS011;34679;51.436;-2.518;2023-07-16T03:33:02;24.50;;;2.92;;
48859;SDS011;34679;51.436;-2.518;2023-07-16T03:35:29;20.48;;;3.70;;
48859;SDS011;34679;51.436;-2.518;2023-07-16T03:37:55;18.42;;;3.30;;
48859;SDS011;34679;51.436;-2.518;2023-07-16T03:40:25;12.90;;;3.13;;
48859;SDS011;34679;51.436;-2.518;2023-07-16T03:42:51;24.33;;;4.03;;
48859;SDS011;34679;51.436;-2.518;2023-07-16T03:45:17;22.15;;;3.85;;
48859;SDS011;34679;51.436;-2.518;2023-07-16T03:47:43;19.20;;;3.50;;
48859;SDS011;34679;51.436;-2.518;2023-07-16T03:50:09;22.52;;;3.40;;
48859;SDS011;34679;51.436;-2.518;2023-07-16T03:52:35;29.58;;;4.15;;
48859;SDS011;34679;51.436;-2.518;2023-07-16T03:55:01;28.70;;;3.85;;
48859;SDS011;34679;51.436;-2.518;2023-07-16T03:57:30;27.88;;;4.78;;
48859;SDS011;34679;51.436;-2.518;2023-07-16T03:59:55;27.80;;;3.67;;
48859;SDS011;34679;51.436;-2.518;2023-07-16T04:02:21;20.52;;;4.07;;
48859;SDS011;34679;51.436;-2.518;2023-07-16T04:04:48;32.10;;;3.83;;
48859;SDS011;34679;51.436;-2.518;2023-07-16T04:07:14;22.20;;;3.42;;
48859;SDS011;34679;51.436;-2.518;2023-07-16T04:09:39;17.52;;;2.72;;
48859;SDS011;34679;51.436;-2.518;2023-07-16T04:12:05;18.38;;;3.17;;
48859;SDS011;34679;51.436;-2.518;2023-07-16T04:14:32;21.67;;;3.40;;
48859;SDS011;34679;51.436;-2.518;2023-07-16T04:16:57;19.95;;;3.33;;
48859;SDS011;34679;51.436;-2.518;2023-07-16T04:19:23;20.33;;;3.05;;
48859;SDS011;34679;51.436;-2.518;2023-07-16T04:21:49;21.80;;;3.50;;
48859;SDS011;34679;51.436;-2.518;2023-07-16T04:24:15;15.00;;;3.88;;
48859;SDS011;34679;51.436;-2.518;2023-07-16T04:26:40;20.67;;;3.42;;
48859;SDS011;34679;51.436;-2.518;2023-07-16T04:29:06;24.25;;;5.32;;
48859;SDS011;34679;51.436;-2.518;2023-07-16T04:31:32;20.48;;;4.28;;
48859;SDS011;34679;51.436;-2.518;2023-07-16T04:33:57;21.75;;;3.05;;
48859;SDS011;34679;51.436;-2.518;2023-07-16T04:36:23;17.13;;;2.97;;
48859;SDS011;34679;51.436;-2.518;2023-07-16T04:38:49;23.88;;;3.20;;
48859;SDS011;34679;51.436;-2.518;2023-07-16T04:41:16;27.00;;;3.45;;
48859;SDS011;34679;51.436;-2.518;2023-07-16T04:43:41;26.60;;;3.67;;
48859;SDS011;34679;51.436;-2.518;2023-07-16T04:46:07;23.52;;;4.22;;
48859;SDS011;34679;51.436;-2.518;2023-07-16T04:48:33;28.13;;;4.85;;
48859;SDS011;34679;51.436;-2.518;2023-07-16T04:50:58;24.13;;;3.17;;
48859;SDS011;34679;51.436;-2.518;2023-07-16T04:53:24;36.47;;;4.50;;
48859;SDS011;34679;51.436;-2.518;2023-07-16T04:55:50;19.85;;;3.75;;
48859;SDS011;34679;51.436;-2.518;2023-07-16T04:58:16;23.13;;;2.97;;
48859;SDS011;34679;51.436;-2.518;2023-07-16T05:00:41;22.55;;;3.10;;
48859;SDS011;34679;51.436;-2.518;2023-07-16T05:03:07;19.02;;;3.10;;
48859;SDS011;34679;51.436;-2.518;2023-07-16T05:05:33;21.35;;;2.92;;
48859;SDS011;34679;51.436;-2.518;2023-07-16T05:08:00;22.88;;;3.10;;
48859;SDS011;34679;51.436;-2.518;2023-07-16T05:10:27;22.17;;;3.92;;
48859;SDS011;34679;51.436;-2.518;2023-07-16T05:12:53;22.58;;;2.90;;
48859;SDS011;34679;51.436;-2.518;2023-07-16T05:15:19;25.38;;;3.03;;
48859;SDS011;34679;51.436;-2.518;2023-07-16T05:17:45;25.27;;;4.07;;
48859;SDS011;34679;51.436;-2.518;2023-07-16T05:20:10;21.92;;;5.30;;
48859;SDS011;34679;51.436;-2.518;2023-07-16T05:22:36;21.67;;;3.15;;
48859;SDS011;34679;51.436;-2.518;2023-07-16T05:25:02;23.60;;;3.33;;
48859;SDS011;34679;51.436;-2.518;2023-07-16T05:27:28;29.08;;;3.83;;
48859;SDS011;34679;51.436;-2.518;2023-07-16T05:29:54;19.83;;;3.22;;
48859;SDS011;34679;51.436;-2.518;2023-07-16T05:32:21;22.88;;;3.22;;
48859;SDS011;34679;51.436;-2.518;2023-07-16T05:34:47;19.27;;;2.88;;
48859;SDS011;34679;51.436;-2.518;2023-07-16T05:37:12;16.30;;;3.65;;
48859;SDS011;34679;51.436;-2.518;2023-07-16T05:39:38;14.85;;;3.20;;
48859;SDS011;34679;51.436;-2.518;2023-07-16T05:42:04;18.98;;;3.33;;
48859;SDS011;34679;51.436;-2.518;2023-07-16T05:44:30;21.48;;;3.05;;
48859;SDS011;34679;51.436;-2.518;2023-07-16T05:46:56;14.38;;;2.83;;
48859;SDS011;34679;51.436;-2.518;2023-07-16T05:49:23;18.08;;;2.88;;
48859;SDS011;34679;51.436;-2.518;2023-07-16T05:51:50;25.05;;;3.20;;
48859;SDS011;34679;51.436;-2.518;2023-07-16T05:54:16;17.50;;;3.25;;
48859;SDS011;34679;51.436;-2.518;2023-07-16T05:56:42;22.45;;;2.55;;
48859;SDS011;34679;51.436;-2.518;2023-07-16T05:59:07;28.55;;;4.60;;
48859;SDS011;34679;51.436;-2.518;2023-07-16T06:01:33;22.30;;;3.75;;
48859;SDS011;34679;51.436;-2.518;2023-07-16T06:03:59;24.40;;;3.67;;
48859;SDS011;34679;51.436;-2.518;2023-07-16T06:06:26;19.67;;;2.65;;
48859;SDS011;34679;51.436;-2.518;2023-07-16T06:08:53;23.30;;;3.33;;
48859;SDS011;34679;51.436;-2.518;2023-07-16T06:11:18;29.98;;;4.57;;
48859;SDS011;34679;51.436;-2.518;2023-07-16T06:13:44;19.92;;;3.40;;
48859;SDS011;34679;51.436;-2.518;2023-07-16T06:16:10;18.95;;;3.63;;
48859;SDS011;34679;51.436;-2.518;2023-07-16T06:18:35;31.27;;;3.97;;
48859;SDS011;34679;51.436;-2.518;2023-07-16T06:21:01;18.90;;;2.85;;
48859;SDS011;34679;51.436;-2.518;2023-07-16T06:23:27;19.83;;;3.63;;
48859;SDS011;34679;51.436;-2.518;2023-07-16T06:25:56;15.82;;;2.80;;
48859;SDS011;34679;51.436;-2.518;2023-07-16T06:28:21;26.08;;;3.53;;
48859;SDS011;34679;51.436;-2.518;2023-07-16T06:30:48;21.83;;;3.20;;
48859;SDS011;34679;51.436;-2.518;2023-07-16T06:33:14;24.20;;;3.88;;
48859;SDS011;34679;51.436;-2.518;2023-07-16T06:35:40;15.85;;;3.30;;
48859;SDS011;34679;51.436;-2.518;2023-07-16T06:38:09;20.30;;;3.45;;
48859;SDS011;34679;51.436;-2.518;2023-07-16T06:40:35;20.75;;;3.38;;
48859;SDS011;34679;51.436;-2.518;2023-07-16T06:43:01;32.28;;;4.32;;
48859;SDS011;34679;51.436;-2.518;2023-07-16T06:45:26;18.40;;;2.63;;
48859;SDS011;34679;51.436;-2.518;2023-07-16T06:47:52;23.35;;;5.75;;
48859;SDS011;34679;51.436;-2.518;2023-07-16T06:50:17;17.38;;;2.97;;
48859;SDS011;34679;51.436;-2.518;2023-07-16T06:52:43;16.55;;;2.42;;
48859;SDS011;34679;51.436;-2.518;2023-07-16T06:55:09;16.45;;;3.33;;
48859;SDS011;34679;51.436;-2.518;2023-07-16T06:57:35;18.73;;;3.67;;
48859;SDS011;34679;51.436;-2.518;2023-07-16T07:00:00;14.30;;;2.45;;
48859;SDS011;34679;51.436;-2.518;2023-07-16T07:02:26;14.82;;;2.45;;
48859;SDS011;34679;51.436;-2.518;2023-07-16T07:04:52;18.48;;;3.35;;
48859;SDS011;34679;51.436;-2.518;2023-07-16T07:07:18;13.70;;;2.78;;
48859;SDS011;34679;51.436;-2.518;2023-07-16T07:09:47;21.50;;;3.47;;
48859;SDS011;34679;51.436;-2.518;2023-07-16T07:12:13;11.43;;;2.58;;
48859;SDS011;34679;51.436;-2.518;2023-07-16T07:14:39;16.15;;;2.58;;
48859;SDS011;34679;51.436;-2.518;2023-07-16T07:17:05;15.27;;;2.45;;
48859;SDS011;34679;51.436;-2.518;2023-07-16T07:19:30;13.93;;;3.60;;
48859;SDS011;34679;51.436;-2.518;2023-07-16T07:21:57;11.40;;;2.28;;
48859;SDS011;34679;51.436;-2.518;2023-07-16T07:24:23;13.07;;;2.67;;
48859;SDS011;34679;51.436;-2.518;2023-07-16T07:26:48;21.80;;;2.95;;
48859;SDS011;34679;51.436;-2.518;2023-07-16T07:29:14;12.73;;;2.92;;
48859;SDS011;34679;51.436;-2.518;2023-07-16T07:31:40;17.85;;;3.05;;
48859;SDS011;34679;51.436;-2.518;2023-07-16T07:34:06;21.33;;;3.30;;
48859;SDS011;34679;51.436;-2.518;2023-07-16T07:36:31;19.38;;;3.45;;
48859;SDS011;34679;51.436;-2.518;2023-07-16T07:38:57;21.08;;;2.97;;
48859;SDS011;34679;51.436;-2.518;2023-07-16T07:41:23;17.33;;;2.75;;
48859;SDS011;34679;51.436;-2.518;2023-07-16T07:43:48;18.58;;;2.80;;
48859;SDS011;34679;51.436;-2.518;2023-07-16T07:46:14;16.08;;;2.25;;
48859;SDS011;34679;51.436;-2.518;2023-07-16T07:48:40;17.83;;;2.67;;
48859;SDS011;34679;51.436;-2.518;2023-07-16T07:51:05;13.07;;;2.55;;
48859;SDS011;34679;51.436;-2.518;2023-07-16T07:53:31;12.88;;;2.72;;
48859;SDS011;34679;51.436;-2.518;2023-07-16T07:55:57;18.20;;;2.65;;
48859;SDS011;34679;51.436;-2.518;2023-07-16T07:58:22;12.32;;;2.13;;
48859;SDS011;34679;51.436;-2.518;2023-07-16T08:00:48;12.93;;;2.58;;
48859;SDS011;34679;51.436;-2.518;2023-07-16T08:03:14;12.50;;;2.30;;
48859;SDS011;34679;51.436;-2.518;2023-07-16T08:05:39;17.05;;;2.35;;
48859;SDS011;34679;51.436;-2.518;2023-07-16T08:08:05;13.65;;;2.50;;
48859;SDS011;34679;51.436;-2.518;2023-07-16T08:10:31;11.93;;;2.20;;
48859;SDS011;34679;51.436;-2.518;2023-07-16T08:12:56;15.20;;;1.88;;
48859;SDS011;34679;51.436;-2.518;2023-07-16T08:15:22;16.70;;;2.60;;
48859;SDS011;34679;51.436;-2.518;2023-07-16T08:17:48;12.02;;;2.00;;
48859;SDS011;34679;51.436;-2.518;2023-07-16T08:20:13;13.60;;;2.30;;
48859;SDS011;34679;51.436;-2.518;2023-07-16T08:22:39;13.23;;;2.80;;
48859;SDS011;34679;51.436;-2.518;2023-07-16T08:25:06;16.45;;;2.38;;
48859;SDS011;34679;51.436;-2.518;2023-07-16T08:27:33;13.70;;;2.97;;
48859;SDS011;34679;51.436;-2.518;2023-07-16T08:29:59;16.33;;;2.50;;
48859;SDS011;34679;51.436;-2.518;2023-07-16T08:32:25;10.75;;;2.50;;
48859;SDS011;34679;51.436;-2.518;2023-07-16T08:34:51;10.98;;;2.10;;
48859;SDS011;34679;51.436;-2.518;2023-07-16T08:37:16;15.82;;;3.47;;
48859;SDS011;34679;51.436;-2.518;2023-07-16T08:39:42;11.18;;;2.10;;
48859;SDS011;34679;51.436;-2.518;2023-07-16T08:42:09;10.55;;;2.03;;
48859;SDS011;34679;51.436;-2.518;2023-07-16T08:44:38;12.90;;;2.75;;
48859;SDS011;34679;51.436;-2.518;2023-07-16T08:47:05;9.88;;;2.25;;
48859;SDS011;34679;51.436;-2.518;2023-07-16T08:49:31;8.43;;;1.98;;
48859;SDS011;34679;51.436;-2.518;2023-07-16T08:51:59;10.95;;;1.92;;
48859;SDS011;34679;51.436;-2.518;2023-07-16T08:54:27;10.52;;;1.90;;
48859;SDS011;34679;51.436;-2.518;2023-07-16T08:56:52;10.23;;;1.90;;
48859;SDS011;34679;51.436;-2.518;2023-07-16T08:59:18;7.38;;;1.80;;
48859;SDS011;34679;51.436;-2.518;2023-07-16T09:01:47;7.55;;;1.58;;
48859;SDS011;34679;51.436;-2.518;2023-07-16T09:04:14;6.25;;;1.70;;
48859;SDS011;34679;51.436;-2.518;2023-07-16T09:06:41;13.63;;;2.47;;
48859;SDS011;34679;51.436;-2.518;2023-07-16T09:09:07;11.35;;;2.90;;
48859;SDS011;34679;51.436;-2.518;2023-07-16T09:11:33;6.95;;;1.73;;
48859;SDS011;34679;51.436;-2.518;2023-07-16T09:14:01;12.02;;;1.95;;
48859;SDS011;34679;51.436;-2.518;2023-07-16T09:16:31;10.05;;;1.88;;
48859;SDS011;34679;51.436;-2.518;2023-07-16T09:19:05;9.10;;;1.77;;
48859;SDS011;34679;51.436;-2.518;2023-07-16T09:21:38;6.75;;;1.98;;
48859;SDS011;34679;51.436;-2.518;2023-07-16T09:24:07;9.40;;;2.13;;
48859;SDS011;34679;51.436;-2.518;2023-07-16T09:26:36;12.05;;;2.05;;
48859;SDS011;34679;51.436;-2.518;2023-07-16T09:29:05;7.20;;;1.52;;
48859;SDS011;34679;51.436;-2.518;2023-07-16T09:31:32;3.15;;;1.00;;
48859;SDS011;34679;51.436;-2.518;2023-07-16T09:33:58;6.88;;;1.23;;
48859;SDS011;34679;51.436;-2.518;2023-07-16T09:36:27;4.18;;;1.10;;
48859;SDS011;34679;51.436;-2.518;2023-07-16T09:38:55;5.28;;;1.08;;
48859;SDS011;34679;51.436;-2.518;2023-07-16T09:41:24;4.65;;;1.75;;
48859;SDS011;34679;51.436;-2.518;2023-07-16T09:43:50;5.75;;;0.85;;
48859;SDS011;34679;51.436;-2.518;2023-07-16T09:46:15;3.75;;;1.15;;
48859;SDS011;34679;51.436;-2.518;2023-07-16T09:48:41;5.20;;;1.20;;
48859;SDS011;34679;51.436;-2.518;2023-07-16T09:51:07;5.22;;;1.08;;
48859;SDS011;34679;51.436;-2.518;2023-07-16T09:53:37;4.30;;;1.10;;
48859;SDS011;34679;51.436;-2.518;2023-07-16T09:56:07;5.00;;;1.33;;
48859;SDS011;34679;51.436;-2.518;2023-07-16T09:58:35;5.13;;;0.70;;
48859;SDS011;34679;51.436;-2.518;2023-07-16T10:01:02;7.00;;;1.20;;
48859;SDS011;34679;51.436;-2.518;2023-07-16T10:03:28;6.30;;;1.02;;
48859;SDS011;34679;51.436;-2.518;2023-07-16T10:05:54;1.55;;;0.60;;
48859;SDS011;34679;51.436;-2.518;2023-07-16T10:08:33;3.40;;;0.80;;
48859;SDS011;34679;51.436;-2.518;2023-07-16T10:11:02;5.40;;;0.80;;
48859;SDS011;34679;51.436;-2.518;2023-07-16T10:13:28;2.28;;;0.68;;
48859;SDS011;34679;51.436;-2.518;2023-07-16T10:15:54;4.07;;;1.08;;
48859;SDS011;34679;51.436;-2.518;2023-07-16T10:18:25;3.17;;;0.90;;
48859;SDS011;34679;51.436;-2.518;2023-07-16T10:20:52;6.25;;;1.45;;
48859;SDS011;34679;51.436;-2.518;2023-07-16T10:23:18;8.13;;;1.15;;
48859;SDS011;34679;51.436;-2.518;2023-07-16T10:25:57;5.95;;;1.30;;
48859;SDS011;34679;51.436;-2.518;2023-07-16T10:28:23;9.32;;;1.58;;
48859;SDS011;34679;51.436;-2.518;2023-07-16T10:30:49;6.90;;;1.35;;
48859;SDS011;34679;51.436;-2.518;2023-07-16T10:33:15;4.63;;;1.13;;
48859;SDS011;34679;51.436;-2.518;2023-07-16T10:35:41;2.70;;;1.20;;
48859;SDS011;34679;51.436;-2.518;2023-07-16T10:38:07;4.60;;;1.23;;
48859;SDS011;34679;51.436;-2.518;2023-07-16T10:40:33;6.93;;;1.95;;
48859;SDS011;34679;51.436;-2.518;2023-07-16T10:43:08;4.32;;;1.35;;
48859;SDS011;34679;51.436;-2.518;2023-07-16T10:45:34;6.85;;;2.28;;
48859;SDS011;34679;51.436;-2.518;2023-07-16T10:48:00;8.73;;;1.20;;
48859;SDS011;34679;51.436;-2.518;2023-07-16T10:50:26;5.32;;;1.45;;
48859;SDS011;34679;51.436;-2.518;2023-07-16T10:52:52;5.63;;;1.33;;
48859;SDS011;34679;51.436;-2.518;2023-07-16T10:55:19;10.40;;;1.55;;
48859;SDS011;34679;51.436;-2.518;2023-07-16T10:57:48;7.95;;;1.77;;
48859;SDS011;34679;51.436;-2.518;2023-07-16T11:00:15;7.10;;;1.30;;
48859;SDS011;34679;51.436;-2.518;2023-07-16T11:02:42;17.02;;;2.97;;
48859;SDS011;34679;51.436;-2.518;2023-07-16T11:05:15;7.38;;;1.70;;
48859;SDS011;34679;51.436;-2.518;2023-07-16T11:07:45;5.85;;;1.45;;
48859;SDS011;34679;51.436;-2.518;2023-07-16T11:10:12;10.70;;;1.58;;
48859;SDS011;34679;51.436;-2.518;2023-07-16T11:12:41;9.95;;;1.73;;
48859;SDS011;34679;51.436;-2.518;2023-07-16T11:15:07;9.40;;;1.55;;
48859;SDS011;34679;51.436;-2.518;2023-07-16T11:17:33;10.65;;;1.83;;
48859;SDS011;34679;51.436;-2.518;2023-07-16T11:19:59;8.82;;;1.58;;
48859;SDS011;34679;51.436;-2.518;2023-07-16T11:22:27;12.95;;;2.03;;
48859;SDS011;34679;51.436;-2.518;2023-07-16T11:24:54;7.22;;;1.35;;
48859;SDS011;34679;51.436;-2.518;2023-07-16T11:27:21;14.13;;;1.83;;
48859;SDS011;34679;51.436;-2.518;2023-07-16T11:29:51;13.90;;;2.15;;
48859;SDS011;34679;51.436;-2.518;2023-07-16T11:35:01;11.63;;;1.88;;
48859;SDS011;34679;51.436;-2.518;2023-07-16T11:37:29;10.55;;;1.88;;
48859;SDS011;34679;51.436;-2.518;2023-07-16T11:40:06;9.63;;;2.15;;
48859;SDS011;34679;51.436;-2.518;2023-07-16T11:42:36;6.05;;;1.80;;
48859;SDS011;34679;51.436;-2.518;2023-07-16T11:45:03;12.82;;;2.28;;
48859;SDS011;34679;51.436;-2.518;2023-07-16T11:47:30;10.77;;;2.10;;
48859;SDS011;34679;51.436;-2.518;2023-07-16T11:49:57;8.63;;;2.03;;
48859;SDS011;34679;51.436;-2.518;2023-07-16T11:52:23;9.63;;;1.95;;
48859;SDS011;34679;51.436;-2.518;2023-07-16T11:54:57;10.20;;;1.67;;
48859;SDS011;34679;51.436;-2.518;2023-07-16T11:57:26;12.00;;;2.25;;
48859;SDS011;34679;51.436;-2.518;2023-07-16T11:59:52;14.18;;;2.08;;
48859;SDS011;34679;51.436;-2.518;2023-07-16T12:02:18;6.55;;;1.58;;
48859;SDS011;34679;51.436;-2.518;2023-07-16T12:04:45;10.60;;;2.22;;
48859;SDS011;34679;51.436;-2.518;2023-07-16T12:07:11;11.57;;;2.03;;
48859;SDS011;34679;51.436;-2.518;2023-07-16T12:09:36;8.32;;;1.77;;
48859;SDS011;34679;51.436;-2.518;2023-07-16T12:12:02;10.38;;;2.00;;
48859;SDS011;34679;51.436;-2.518;2023-07-16T12:14:28;11.20;;;2.20;;
48859;SDS011;34679;51.436;-2.518;2023-07-16T12:16:54;10.70;;;2.47;;
48859;SDS011;34679;51.436;-2.518;2023-07-16T12:19:21;13.00;;;2.10;;
48859;SDS011;34679;51.436;-2.518;2023-07-16T12:21:47;11.63;;;2.40;;
48859;SDS011;34679;51.436;-2.518;2023-07-16T12:24:12;12.95;;;2.72;;
48859;SDS011;34679;51.436;-2.518;2023-07-16T12:26:38;11.25;;;1.85;;
48859;SDS011;34679;51.436;-2.518;2023-07-16T12:29:04;9.20;;;2.05;;
48859;SDS011;34679;51.436;-2.518;2023-07-16T12:31:33;9.27;;;1.80;;
48859;SDS011;34679;51.436;-2.518;2023-07-16T12:34:02;10.75;;;1.73;;
48859;SDS011;34679;51.436;-2.518;2023-07-16T12:36:28;13.55;;;2.60;;
48859;SDS011;34679;51.436;-2.518;2023-07-16T12:38:53;10.82;;;1.83;;
48859;SDS011;34679;51.436;-2.518;2023-07-16T12:41:19;13.90;;;2.47;;
48859;SDS011;34679;51.436;-2.518;2023-07-16T12:43:46;10.95;;;2.45;;
48859;SDS011;34679;51.436;-2.518;2023-07-16T12:46:12;16.35;;;2.40;;
48859;SDS011;34679;51.436;-2.518;2023-07-16T12:48:37;7.53;;;1.83;;
48859;SDS011;34679;51.436;-2.518;2023-07-16T12:51:03;7.88;;;2.35;;
48859;SDS011;34679;51.436;-2.518;2023-07-16T12:53:29;9.50;;;2.22;;
48859;SDS011;34679;51.436;-2.518;2023-07-16T12:55:55;10.57;;;2.58;;
48859;SDS011;34679;51.436;-2.518;2023-07-16T12:58:21;12.63;;;2.85;;
48859;SDS011;34679;51.436;-2.518;2023-07-16T13:00:47;8.07;;;1.80;;
48859;SDS011;34679;51.436;-2.518;2023-07-16T13:03:13;12.88;;;2.10;;
48859;SDS011;34679;51.436;-2.518;2023-07-16T13:05:41;6.50;;;1.88;;
48859;SDS011;34679;51.436;-2.518;2023-07-16T13:08:08;10.88;;;2.35;;
48859;SDS011;34679;51.436;-2.518;2023-07-16T13:10:34;9.63;;;2.17;;
48859;SDS011;34679;51.436;-2.518;2023-07-16T13:13:00;12.65;;;2.60;;
48859;SDS011;34679;51.436;-2.518;2023-07-16T13:15:28;6.95;;;1.75;;
48859;SDS011;34679;51.436;-2.518;2023-07-16T13:17:54;4.40;;;1.55;;
48859;SDS011;34679;51.436;-2.518;2023-07-16T13:20:20;6.43;;;1.90;;
48859;SDS011;34679;51.436;-2.518;2023-07-16T13:22:47;9.48;;;1.88;;
48859;SDS011;34679;51.436;-2.518;2023-07-16T13:25:13;10.93;;;1.90;;
48859;SDS011;34679;51.436;-2.518;2023-07-16T13:27:39;11.23;;;2.05;;
48859;SDS011;34679;51.436;-2.518;2023-07-16T13:30:05;8.70;;;1.63;;
48859;SDS011;34679;51.436;-2.518;2023-07-16T13:32:31;7.53;;;1.65;;
48859;SDS011;34679;51.436;-2.518;2023-07-16T13:34:57;7.43;;;1.80;;
48859;SDS011;34679;51.436;-2.518;2023-07-16T13:37:22;6.90;;;1.45;;
48859;SDS011;34679;51.436;-2.518;2023-07-16T13:39:48;6.22;;;1.85;;
48859;SDS011;34679;51.436;-2.518;2023-07-16T13:42:14;3.25;;;1.30;;
48859;SDS011;34679;51.436;-2.518;2023-07-16T13:44:40;7.60;;;1.40;;
48859;SDS011;34679;51.436;-2.518;2023-07-16T13:47:05;8.55;;;1.67;;
48859;SDS011;34679;51.436;-2.518;2023-07-16T13:49:31;9.68;;;2.00;;
48859;SDS011;34679;51.436;-2.518;2023-07-16T13:51:56;11.30;;;2.08;;
48859;SDS011;34679;51.436;-2.518;2023-07-16T13:54:23;3.25;;;1.58;;
48859;SDS011;34679;51.436;-2.518;2023-07-16T13:56:49;5.70;;;1.60;;
48859;SDS011;34679;51.436;-2.518;2023-07-16T13:59:14;5.68;;;1.67;;
48859;SDS011;34679;51.436;-2.518;2023-07-16T14:01:40;9.00;;;1.35;;
48859;SDS011;34679;51.436;-2.518;2023-07-16T14:04:06;8.82;;;1.90;;
48859;SDS011;34679;51.436;-2.518;2023-07-16T14:06:32;4.57;;;1.63;;
48859;SDS011;34679;51.436;-2.518;2023-07-16T14:08:58;8.43;;;1.58;;
48859;SDS011;34679;51.436;-2.518;2023-07-16T14:11:24;3.67;;;1.73;;
48859;SDS011;34679;51.436;-2.518;2023-07-16T14:13:50;6.78;;;1.67;;
48859;SDS011;34679;51.436;-2.518;2023-07-16T14:16:22;4.90;;;2.05;;
48859;SDS011;34679;51.436;-2.518;2023-07-16T14:18:49;5.47;;;2.13;;
48859;SDS011;34679;51.436;-2.518;2023-07-16T14:21:17;6.03;;;2.10;;
48859;SDS011;34679;51.436;-2.518;2023-07-16T14:23:43;4.50;;;1.70;;
48859;SDS011;34679;51.436;-2.518;2023-07-16T14:26:08;8.90;;;2.35;;
48859;SDS011;34679;51.436;-2.518;2023-07-16T14:28:34;9.20;;;2.55;;
48859;SDS011;34679;51.436;-2.518;2023-07-16T14:31:00;3.55;;;1.60;;